createdAt,value
2022-09-23T00:00:48.067Z,6.29
2022-09-23T00:03:34.277Z,6.35
2022-09-23T00:06:03.661Z,6.38
2022-09-23T00:08:31.392Z,6.42
2022-09-23T00:11:04.794Z,6.57
2022-09-23T00:13:32.989Z,6.47
2022-09-23T00:16:02.876Z,6.41
2022-09-23T00:18:30.036Z,6.24
2022-09-23T00:21:02.863Z,6.16
2022-09-23T00:23:30.157Z,6.17
2022-09-23T00:25:58.187Z,6.08
2022-09-23T00:28:26.228Z,5.93
2022-09-23T00:30:53.789Z,5.88
2022-09-23T00:33:21.357Z,5.80
2022-09-23T00:35:49.362Z,5.83
2022-09-23T00:38:18.207Z,5.87
2022-09-23T00:40:46.258Z,5.91
2022-09-23T00:43:14.886Z,5.83
2022-09-23T00:45:46.856Z,5.77
2022-09-23T00:48:18.152Z,5.72
2022-09-23T00:50:49.706Z,5.95
2022-09-23T00:53:22.783Z,5.93
2022-09-23T00:55:53.221Z,5.80
2022-09-23T00:58:25.377Z,5.96
2022-09-23T01:00:53.180Z,6.04
2022-09-23T01:03:21.252Z,5.92
2022-09-23T01:05:49.767Z,5.84
2022-09-23T01:08:19.385Z,5.77
2022-09-23T01:10:59.229Z,5.82
2022-09-23T01:13:35.937Z,5.81
2022-09-23T01:16:08.612Z,5.78
2022-09-23T01:18:46.473Z,5.65
2022-09-23T01:21:23.178Z,5.56
2022-09-23T01:24:13.133Z,5.39
2022-09-23T01:26:58.554Z,5.34
2022-09-23T01:30:18.120Z,5.43
2022-09-23T01:33:05.340Z,5.34
2022-09-23T01:35:46.513Z,5.47
2022-09-23T01:38:27.041Z,5.53
2022-09-23T01:41:02.876Z,5.60
2022-09-23T01:43:37.956Z,5.61
2022-09-23T01:46:11.317Z,5.51
2022-09-23T01:48:45.412Z,5.33
2022-09-23T01:51:16.434Z,5.42
2022-09-23T01:53:49.391Z,5.49
2022-09-23T01:56:22.473Z,5.37
2022-09-23T01:58:52.182Z,5.31
2022-09-23T02:01:27.402Z,5.27
2022-09-23T02:04:01.484Z,5.22
2022-09-23T02:06:33.734Z,5.29
2022-09-23T02:09:05.361Z,5.32
2022-09-23T02:11:35.020Z,5.33
2022-09-23T02:14:09.417Z,5.28
2022-09-23T02:16:43.470Z,5.31
2022-09-23T02:19:18.748Z,5.39
2022-09-23T02:21:53.015Z,5.39
2022-09-23T02:24:23.040Z,5.31
2022-09-23T02:26:54.693Z,5.49
2022-09-23T02:29:28.755Z,5.37
2022-09-23T02:32:00.008Z,5.27
2022-09-23T02:34:43.145Z,5.09
2022-09-23T02:37:21.076Z,5.13
2022-09-23T02:39:56.474Z,5.27
2022-09-23T02:42:32.829Z,5.41
2022-09-23T02:45:00.324Z,5.39
2022-09-23T02:47:32.546Z,5.27
2022-09-23T02:50:01.680Z,5.24
2022-09-23T02:52:29.653Z,5.09
2022-09-23T02:54:57.536Z,5.16
2022-09-23T02:57:24.973Z,5.37
2022-09-23T02:59:52.789Z,5.29
2022-09-23T03:02:40.025Z,5.06
2022-09-23T03:05:19.116Z,4.93
2022-09-23T03:07:55.886Z,4.86
2022-09-23T03:10:30.045Z,4.83
2022-09-23T03:13:06.681Z,4.78
2022-09-23T03:15:38.906Z,4.75
2022-09-23T03:18:15.003Z,4.87
2022-09-23T03:20:48.765Z,4.72
2022-09-23T03:23:19.956Z,4.67
2022-09-23T03:25:50.403Z,4.70
2022-09-23T03:28:18.965Z,4.87
2022-09-23T03:30:46.598Z,4.64
2022-09-23T03:33:17.827Z,4.65
2022-09-23T03:35:53.174Z,4.61
2022-09-23T03:38:26.074Z,4.45
2022-09-23T03:40:58.239Z,4.57
2022-09-23T03:43:26.526Z,4.61
2022-09-23T03:45:54.629Z,4.76
2022-09-23T03:48:22.122Z,4.78
2022-09-23T03:50:51.571Z,4.57
2022-09-23T03:53:18.954Z,4.45
2022-09-23T03:55:46.305Z,4.43
2022-09-23T03:58:14.045Z,4.49
2022-09-23T04:00:41.423Z,4.49
2022-09-23T04:03:11.730Z,4.37
2022-09-23T04:05:39.620Z,4.41
2022-09-23T04:08:08.899Z,4.22
2022-09-23T04:10:36.185Z,4.20
2022-09-23T04:13:04.004Z,4.22
2022-09-23T04:15:31.296Z,4.24
2022-09-23T04:17:58.564Z,4.29
2022-09-23T04:20:26.479Z,4.53
2022-09-23T04:22:53.775Z,4.50
2022-09-23T04:25:22.651Z,4.49
2022-09-23T04:27:50.334Z,4.47
2022-09-23T04:30:17.770Z,4.35
2022-09-23T04:32:45.069Z,4.47
2022-09-23T04:35:12.902Z,4.51
2022-09-23T04:37:40.117Z,4.65
2022-09-23T04:40:09.430Z,4.49
2022-09-23T04:42:39.004Z,4.31
2022-09-23T04:45:08.024Z,4.41
2022-09-23T04:47:35.285Z,4.38
2022-09-23T04:50:03.297Z,4.24
2022-09-23T04:52:31.076Z,4.54
2022-09-23T04:54:58.511Z,4.38
2022-09-23T04:57:26.144Z,4.36
2022-09-23T04:59:55.196Z,4.15
2022-09-23T05:02:22.816Z,4.37
2022-09-23T05:04:50.539Z,4.72
2022-09-23T05:07:18.053Z,4.89
2022-09-23T05:09:45.548Z,5.15
2022-09-23T05:12:13.303Z,5.35
2022-09-23T05:14:40.720Z,5.55
2022-09-23T05:17:09.606Z,5.76
2022-09-23T05:19:37.527Z,5.92
2022-09-23T05:22:04.914Z,6.19
2022-09-23T05:24:32.236Z,6.48
2022-09-23T05:26:59.760Z,6.70
2022-09-23T05:29:27.048Z,6.90
2022-09-23T05:31:54.384Z,7.18
2022-09-23T05:34:29.584Z,7.43
2022-09-23T05:36:57.083Z,7.62
2022-09-23T05:39:24.870Z,7.66
2022-09-23T05:41:52.260Z,7.91
2022-09-23T05:44:20.267Z,8.15
2022-09-23T05:46:48.082Z,8.42
2022-09-23T05:49:15.989Z,8.53
2022-09-23T05:51:44.717Z,8.74
2022-09-23T05:54:12.569Z,8.92
2022-09-23T05:56:39.901Z,9.00
2022-09-23T05:59:07.372Z,9.25
2022-09-23T06:01:35.884Z,9.40
2022-09-23T06:04:05.473Z,9.52
2022-09-23T06:06:36.270Z,9.65
2022-09-23T06:09:06.642Z,9.86
2022-09-23T06:11:35.805Z,10.09
2022-09-23T06:14:04.123Z,10.17
2022-09-23T06:16:34.498Z,10.48
2022-09-23T06:19:05.397Z,10.58
2022-09-23T06:21:36.407Z,10.78
2022-09-23T06:24:06.770Z,10.84
2022-09-23T06:26:34.868Z,11.02
2022-09-23T06:29:03.694Z,11.28
2022-09-23T06:31:31.138Z,11.54
2022-09-23T06:34:12.806Z,11.54
2022-09-23T06:36:44.984Z,11.22
2022-09-23T06:39:15.405Z,10.99
2022-09-23T06:41:48.998Z,10.84
2022-09-23T06:44:24.223Z,10.83
2022-09-23T06:46:59.801Z,10.92
2022-09-23T06:49:27.485Z,11.12
2022-09-23T06:51:54.806Z,11.38
2022-09-23T06:54:23.668Z,11.57
2022-09-23T06:56:51.385Z,11.72
2022-09-23T06:59:18.783Z,11.54
2022-09-23T07:01:46.545Z,11.78
2022-09-23T07:04:14.606Z,12.08
2022-09-23T07:06:41.941Z,12.20
2022-09-23T07:09:09.533Z,12.45
2022-09-23T07:11:39.140Z,12.44
2022-09-23T07:14:07.269Z,12.67
2022-09-23T07:16:34.971Z,12.92
2022-09-23T07:19:03.228Z,12.97
2022-09-23T07:21:30.909Z,12.98
2022-09-23T07:23:58.377Z,12.99
2022-09-23T07:26:26.988Z,13.04
2022-09-23T07:28:56.945Z,13.25
2022-09-23T07:31:37.965Z,13.29
2022-09-23T07:34:08.789Z,13.77
2022-09-23T07:36:36.078Z,14.29
2022-09-23T07:39:03.612Z,14.42
2022-09-23T07:41:33.037Z,14.37
2022-09-23T07:44:02.173Z,14.00
2022-09-23T07:46:32.118Z,13.95
2022-09-23T07:49:00.016Z,13.90
2022-09-23T07:51:34.777Z,13.71
2022-09-23T07:54:05.200Z,14.05
2022-09-23T07:56:32.828Z,14.05
2022-09-23T07:59:01.575Z,14.30
2022-09-23T08:01:31.801Z,14.21
2022-09-23T08:04:00.849Z,14.46
2022-09-23T08:06:28.253Z,14.78
2022-09-23T08:08:58.152Z,14.82
2022-09-23T08:11:26.492Z,15.05
2022-09-23T08:13:53.909Z,14.71
2022-09-23T08:16:23.105Z,14.67
2022-09-23T08:18:50.614Z,15.20
2022-09-23T08:21:19.862Z,15.11
2022-09-23T08:23:47.891Z,14.93
2022-09-23T08:26:20.993Z,15.07
2022-09-23T08:28:50.459Z,15.60
2022-09-23T08:31:17.795Z,15.24
2022-09-23T08:33:46.883Z,15.52
2022-09-23T08:36:14.548Z,15.86
2022-09-23T08:38:42.292Z,15.97
2022-09-23T08:41:17.226Z,15.86
2022-09-23T08:43:48.791Z,16.07
2022-09-23T08:46:22.316Z,16.24
2022-09-23T08:48:52.755Z,15.94
2022-09-23T08:51:25.695Z,16.05
2022-09-23T08:53:53.415Z,16.39
2022-09-23T08:56:23.487Z,16.19
2022-09-23T08:59:04.738Z,16.48
2022-09-23T09:01:41.667Z,16.73
2022-09-23T09:04:20.521Z,17.38
2022-09-23T09:06:54.293Z,16.93
2022-09-23T09:09:27.078Z,16.61
2022-09-23T09:12:01.530Z,16.88
2022-09-23T09:14:36.443Z,16.84
2022-09-23T09:17:07.385Z,17.23
2022-09-23T09:19:54.186Z,17.51
2022-09-23T09:22:33.263Z,17.60
2022-09-23T09:25:10.465Z,17.17
2022-09-23T09:27:40.913Z,17.45
2022-09-23T09:30:12.789Z,17.58
2022-09-23T09:32:48.128Z,17.60
2022-09-23T09:35:28.558Z,17.94
2022-09-23T09:37:56.253Z,18.29
2022-09-23T09:40:24.102Z,18.66
2022-09-23T09:42:51.799Z,18.41
2022-09-23T09:45:29.841Z,18.32
2022-09-23T09:48:06.592Z,18.34
2022-09-23T09:50:49.589Z,17.95
2022-09-23T09:53:21.626Z,18.31
2022-09-23T09:56:04.379Z,18.22
2022-09-23T09:58:43.403Z,18.09
2022-09-23T10:01:22.749Z,18.10
2022-09-23T10:03:54.311Z,18.44
2022-09-23T10:06:28.624Z,18.56
2022-09-23T10:09:17.220Z,19.03
2022-09-23T10:12:04.099Z,19.57
2022-09-23T10:14:31.407Z,19.99
2022-09-23T10:17:04.172Z,20.25
2022-09-23T10:19:32.742Z,20.35
2022-09-23T10:22:05.034Z,20.30
2022-09-23T10:24:34.915Z,19.95
2022-09-23T10:27:04.901Z,20.17
2022-09-23T10:29:34.068Z,20.38
2022-09-23T10:32:20.811Z,20.76
2022-09-23T10:34:52.347Z,21.17
2022-09-23T10:37:32.918Z,21.36
2022-09-23T10:40:12.080Z,21.40
2022-09-23T10:42:56.611Z,21.58
2022-09-23T10:45:28.342Z,21.27
2022-09-23T10:48:03.337Z,21.12
2022-09-23T10:50:41.939Z,20.64
2022-09-23T10:53:16.527Z,20.37
2022-09-23T10:56:04.441Z,20.50
2022-09-23T10:59:13.496Z,20.86
2022-09-23T11:01:49.913Z,21.08
2022-09-23T11:04:38.809Z,21.44
2022-09-23T11:07:21.273Z,21.29
2022-09-23T11:10:23.183Z,20.50
2022-09-23T11:13:07.477Z,19.83
2022-09-23T11:15:44.778Z,19.16
2022-09-23T11:18:48.918Z,19.53
2022-09-23T11:21:50.145Z,20.03
2022-09-23T11:24:54.344Z,20.54
2022-09-23T11:27:40.597Z,20.56
2022-09-23T11:30:11.296Z,19.65
2022-09-23T11:32:58.042Z,19.78
2022-09-23T11:35:29.545Z,19.40
2022-09-23T11:38:05.173Z,19.31
2022-09-23T11:40:35.610Z,19.05
2022-09-23T11:43:14.924Z,19.20
2022-09-23T11:45:47.217Z,19.70
2022-09-23T11:48:18.921Z,20.49
2022-09-23T11:50:55.093Z,21.20
2022-09-23T11:53:29.392Z,21.75
2022-09-23T11:56:03.482Z,20.78
2022-09-23T12:01:13.006Z,20.13
2022-09-23T12:03:48.718Z,19.70
2022-09-23T12:06:21.483Z,19.58
2022-09-23T12:08:54.096Z,20.08
2022-09-23T12:11:30.125Z,20.05
2022-09-23T12:14:09.938Z,19.92
2022-09-23T12:16:57.993Z,20.04
2022-09-23T12:19:57.264Z,20.93
2022-09-23T12:22:43.377Z,21.16
2022-09-23T12:25:32.486Z,21.24
2022-09-23T12:28:05.308Z,21.00
2022-09-23T12:30:38.183Z,20.25
2022-09-23T12:33:16.603Z,20.50
2022-09-23T12:35:45.911Z,19.90
2022-09-23T12:38:19.155Z,20.34
2022-09-23T12:40:47.556Z,20.85
2022-09-23T12:43:20.203Z,20.55
2022-09-23T12:45:49.954Z,20.65
2022-09-23T12:48:47.118Z,21.21
2022-09-23T12:51:20.081Z,20.67
2022-09-23T12:53:56.085Z,20.74
2022-09-23T12:56:29.159Z,21.23
2022-09-23T12:59:20.563Z,21.63
2022-09-23T13:01:49.816Z,21.78
2022-09-23T13:04:35.821Z,22.27
2022-09-23T13:07:08.461Z,22.60
2022-09-23T13:09:41.452Z,22.80
2022-09-23T13:12:16.685Z,22.94
2022-09-23T13:14:47.251Z,22.43
2022-09-23T13:17:29.418Z,22.62
2022-09-23T13:20:05.985Z,22.71
2022-09-23T13:23:04.039Z,22.71
2022-09-23T13:25:34.883Z,22.95
2022-09-23T13:28:03.709Z,22.34
2022-09-23T13:30:31.054Z,22.06
2022-09-23T13:33:10.648Z,21.04
2022-09-23T13:35:42.119Z,21.20
2022-09-23T13:38:10.218Z,21.47
2022-09-23T13:40:39.194Z,21.72
2022-09-23T13:43:13.956Z,22.13
2022-09-23T13:45:42.071Z,22.33
2022-09-23T13:48:13.753Z,21.65
2022-09-23T13:50:47.090Z,21.45
2022-09-23T13:53:22.021Z,21.29
2022-09-23T13:56:01.887Z,21.77
2022-09-23T13:58:31.038Z,21.40
2022-09-23T14:00:59.342Z,21.83
2022-09-23T14:03:35.897Z,22.00
2022-09-23T14:06:09.192Z,21.46
2022-09-23T14:08:39.203Z,21.60
2022-09-23T14:11:06.963Z,21.16
2022-09-23T14:13:43.279Z,20.75
2022-09-23T14:16:13.209Z,20.83
2022-09-23T14:18:45.623Z,20.84
2022-09-23T14:21:31.405Z,20.88
2022-09-23T14:24:12.257Z,20.97
2022-09-23T14:26:40.973Z,21.13
2022-09-23T14:29:15.382Z,21.06
2022-09-23T14:31:46.761Z,21.27
2022-09-23T14:34:44.909Z,21.26
2022-09-23T14:37:23.623Z,21.06
2022-09-23T14:39:54.567Z,20.95
2022-09-23T14:42:25.382Z,21.20
2022-09-23T14:44:52.820Z,21.36
2022-09-23T14:47:20.235Z,20.88
2022-09-23T14:49:50.522Z,20.94
2022-09-23T14:52:18.097Z,21.07
2022-09-23T14:54:46.864Z,21.10
2022-09-23T14:57:29.821Z,20.47
2022-09-23T15:00:00.541Z,19.79
2022-09-23T15:02:30.545Z,19.52
2022-09-23T15:05:14.165Z,19.29
2022-09-23T15:07:43.365Z,19.06
2022-09-23T15:10:18.012Z,18.63
2022-09-23T15:12:47.163Z,18.24
2022-09-23T15:15:16.061Z,18.50
2022-09-23T15:17:43.975Z,18.76
2022-09-23T15:20:23.203Z,18.67
2022-09-23T15:22:52.676Z,18.78
2022-09-23T15:25:22.199Z,18.91
2022-09-23T15:27:58.117Z,18.86
2022-09-23T15:30:26.362Z,18.87
2022-09-23T15:32:53.756Z,18.93
2022-09-23T15:35:24.769Z,18.97
2022-09-23T15:37:55.350Z,18.71
2022-09-23T15:40:25.432Z,18.44
2022-09-23T15:42:55.974Z,18.49
2022-09-23T15:45:29.713Z,18.85
2022-09-23T15:48:01.599Z,18.67
2022-09-23T15:50:30.348Z,18.63
2022-09-23T15:52:58.056Z,18.63
2022-09-23T15:55:25.852Z,18.51
2022-09-23T15:57:53.258Z,18.41
2022-09-23T16:03:05.864Z,17.87
2022-09-23T16:05:38.580Z,17.77
2022-09-23T16:08:09.252Z,17.63
2022-09-23T16:10:38.325Z,17.38
2022-09-23T16:13:10.347Z,17.48
2022-09-23T16:15:38.345Z,17.45
2022-09-23T16:18:06.410Z,17.59
2022-09-23T16:20:38.252Z,17.70
2022-09-23T16:23:07.048Z,17.51
2022-09-23T16:25:35.222Z,17.38
2022-09-23T16:28:04.122Z,17.01
2022-09-23T16:30:34.037Z,17.08
2022-09-23T16:33:01.546Z,17.01
2022-09-23T16:35:31.586Z,16.64
2022-09-23T16:38:00.909Z,16.78
2022-09-23T16:40:28.342Z,16.76
2022-09-23T16:42:56.096Z,16.82
2022-09-23T16:45:23.534Z,16.74
2022-09-23T16:47:52.459Z,16.79
2022-09-23T16:50:23.208Z,16.72
2022-09-23T16:52:51.656Z,16.63
2022-09-23T16:55:20.829Z,16.56
2022-09-23T16:57:48.118Z,16.41
2022-09-23T17:00:16.290Z,16.29
2022-09-23T17:02:44.066Z,16.13
2022-09-23T17:05:11.501Z,15.98
2022-09-23T17:07:38.780Z,15.88
2022-09-23T17:10:07.602Z,15.57
2022-09-23T17:12:36.987Z,15.54
2022-09-23T17:15:08.180Z,15.13
2022-09-23T17:17:36.807Z,14.85
2022-09-23T17:20:06.300Z,15.02
2022-09-23T17:22:34.234Z,15.17
2022-09-23T17:25:02.079Z,15.22
2022-09-23T17:27:29.603Z,15.17
2022-09-23T17:29:58.625Z,15.08
2022-09-23T17:32:26.522Z,14.91
2022-09-23T17:34:53.997Z,14.74
2022-09-23T17:37:21.292Z,14.62
2022-09-23T17:39:49.412Z,14.52
2022-09-23T17:42:16.660Z,14.47
2022-09-23T17:44:44.039Z,14.42
2022-09-23T17:47:13.026Z,14.32
2022-09-23T17:49:40.295Z,14.24
2022-09-23T17:52:07.565Z,14.02
2022-09-23T17:54:35.211Z,13.80
2022-09-23T17:57:03.306Z,13.65
2022-09-23T17:59:30.704Z,13.58
2022-09-23T18:01:58.512Z,13.47
2022-09-23T18:04:27.753Z,13.46
2022-09-23T18:06:55.439Z,13.10
2022-09-23T18:09:23.484Z,13.23
2022-09-23T18:11:50.809Z,13.16
2022-09-23T18:14:20.769Z,12.99
2022-09-23T18:16:50.602Z,12.93
2022-09-23T18:19:19.731Z,12.84
2022-09-23T18:21:50.410Z,12.85
2022-09-23T18:24:31.863Z,12.94
2022-09-23T18:27:00.587Z,13.01
2022-09-23T18:29:28.366Z,13.03
2022-09-23T18:31:56.014Z,12.66
2022-09-23T18:34:23.800Z,12.69
2022-09-23T18:36:52.855Z,12.62
2022-09-23T18:39:20.350Z,12.69
2022-09-23T18:41:47.831Z,12.53
2022-09-23T18:44:16.240Z,12.43
2022-09-23T18:46:43.720Z,12.05
2022-09-23T18:49:11.045Z,12.05
2022-09-23T18:51:47.907Z,11.96
2022-09-23T18:54:17.358Z,12.03
2022-09-23T18:56:45.512Z,12.05
2022-09-23T18:59:14.392Z,11.86
2022-09-23T19:01:42.354Z,11.73
2022-09-23T19:04:10.259Z,11.43
2022-09-23T19:06:37.658Z,11.45
2022-09-23T19:09:06.177Z,11.23
2022-09-23T19:11:35.509Z,11.20
2022-09-23T19:14:04.924Z,11.22
2022-09-23T19:16:32.995Z,11.09
2022-09-23T19:19:05.126Z,11.03
2022-09-23T19:21:36.888Z,10.94
2022-09-23T19:24:07.329Z,10.97
2022-09-23T19:26:37.915Z,10.92
2022-09-23T19:29:08.577Z,10.90
2022-09-23T19:31:38.989Z,10.89
2022-09-23T19:34:11.840Z,10.69
2022-09-23T19:36:40.599Z,10.67
2022-09-23T19:39:12.072Z,10.66
2022-09-23T19:41:40.797Z,10.57
2022-09-23T19:44:08.243Z,10.49
2022-09-23T19:46:38.133Z,10.47
2022-09-23T19:49:06.984Z,10.39
2022-09-23T19:54:20.084Z,10.20
2022-09-23T19:56:49.362Z,9.89
2022-09-23T19:59:18.979Z,10.07
2022-09-23T20:01:47.329Z,10.06
2022-09-23T20:04:14.931Z,10.04
2022-09-23T20:06:42.227Z,9.92
2022-09-23T20:09:09.908Z,9.96
2022-09-23T20:11:37.343Z,10.00
2022-09-23T20:14:06.355Z,10.01
2022-09-23T20:16:37.652Z,9.87
2022-09-23T20:19:05.428Z,9.82
2022-09-23T20:21:33.996Z,9.83
2022-09-23T20:24:03.318Z,9.76
2022-09-23T20:26:30.661Z,9.67
2022-09-23T20:28:58.351Z,9.66
2022-09-23T20:31:28.002Z,9.47
2022-09-23T20:33:57.902Z,9.50
2022-09-23T20:36:25.944Z,9.49
2022-09-23T20:38:54.316Z,9.36
2022-09-23T20:41:22.023Z,9.18
2022-09-23T20:43:52.756Z,9.09
2022-09-23T20:46:20.542Z,9.16
2022-09-23T20:48:49.689Z,9.04
2022-09-23T20:51:17.484Z,9.09
2022-09-23T20:53:45.137Z,9.18
2022-09-23T20:56:12.466Z,9.09
2022-09-23T20:58:39.888Z,9.34
2022-09-23T21:01:09.031Z,9.40
2022-09-23T21:03:37.568Z,9.27
2022-09-23T21:06:08.091Z,9.12
2022-09-23T21:08:37.404Z,9.01
2022-09-23T21:11:06.760Z,8.97
2022-09-23T21:13:34.857Z,9.16
2022-09-23T21:16:03.316Z,9.22
2022-09-23T21:18:31.018Z,9.18
2022-09-23T21:20:59.805Z,9.18
2022-09-23T21:23:31.085Z,8.97
2022-09-23T21:26:01.771Z,8.83
2022-09-23T21:28:33.749Z,8.57
2022-09-23T21:31:01.488Z,8.52
2022-09-23T21:33:29.574Z,8.57
2022-09-23T21:35:59.258Z,8.37
2022-09-23T21:38:27.836Z,8.38
2022-09-23T21:40:58.932Z,8.29
2022-09-23T21:43:28.884Z,8.38
2022-09-23T21:45:57.473Z,8.37
2022-09-23T21:48:25.466Z,8.47
2022-09-23T21:51:00.413Z,8.37
2022-09-23T21:53:30.784Z,8.58
2022-09-23T21:56:03.525Z,8.63
2022-09-23T21:58:31.147Z,8.54
2022-09-23T22:00:59.158Z,8.30
2022-09-23T22:03:27.024Z,8.18
2022-09-23T22:06:06.390Z,7.91
2022-09-23T22:08:37.378Z,8.01
2022-09-23T22:11:06.689Z,8.08
2022-09-23T22:13:34.416Z,8.16
2022-09-23T22:16:03.655Z,8.33
2022-09-23T22:18:31.081Z,8.25
2022-09-23T22:20:58.331Z,8.11
2022-09-23T22:23:26.136Z,8.08
2022-09-23T22:26:03.060Z,8.12
2022-09-23T22:28:32.663Z,8.23
2022-09-23T22:30:59.984Z,8.14
2022-09-23T22:33:27.272Z,8.18
2022-09-23T22:36:01.848Z,8.06
2022-09-23T22:38:29.137Z,7.79
2022-09-23T22:40:58.278Z,7.69
2022-09-23T22:43:25.823Z,7.65
2022-09-23T22:45:53.071Z,7.71
2022-09-23T22:48:20.684Z,7.82
2022-09-23T22:50:48.171Z,7.63
2022-09-23T22:53:15.534Z,7.46
2022-09-23T22:55:43.129Z,7.50
2022-09-23T22:58:31.329Z,7.51
2022-09-23T23:00:59.446Z,7.68
2022-09-23T23:03:26.919Z,7.52
2022-09-23T23:05:54.247Z,7.41
2022-09-23T23:08:22.060Z,7.38
2022-09-23T23:10:49.497Z,7.35
2022-09-23T23:13:18.304Z,7.51
2022-09-23T23:15:45.887Z,7.51
2022-09-23T23:18:13.419Z,7.56
2022-09-23T23:20:40.906Z,7.51
2022-09-23T23:23:08.568Z,7.53
2022-09-23T23:25:35.895Z,7.57
2022-09-23T23:28:03.620Z,7.19
2022-09-23T23:30:33.198Z,7.20
2022-09-23T23:33:00.555Z,7.15
2022-09-23T23:35:27.897Z,7.28
2022-09-23T23:37:56.014Z,7.37
2022-09-23T23:40:23.265Z,7.00
2022-09-23T23:42:50.479Z,6.82
2022-09-23T23:45:18.469Z,6.81
2022-09-23T23:47:47.071Z,6.91
2022-09-23T23:50:14.509Z,6.95
2022-09-23T23:52:42.316Z,6.99
2022-09-23T23:55:09.836Z,7.09
2022-09-23T23:57:37.089Z,6.93
